Time;durP1;ratioP1;P1;durP2;ratioP2;P2;SDS_P1;SDS_P2;PMS_P1;PMS_P2;Temp;Humidity;BMP_temperature;BMP_pressure;BME280_temperature;BME280_humidity;BME280_pressure;Samples;Min_cycle;Max_cycle;Signal;HPM_P1;HPM_P2
2022/03/01 00:00:23;;;;;;;;;;;12.50;81.40;;;;;;5108610;27;19924;-67
2022/03/01 00:02:49;;;;;;;;;;;12.10;81.40;;;;;;5101461;28;19923;-66
2022/03/01 00:05:14;;;;;;;;;;;12.50;81.60;;;;;;5114578;28;20300;-66
2022/03/01 00:07:40;;;;;;;;;;;12.50;81.50;;;;;;5101500;28;19924;-66
2022/03/01 00:10:06;;;;;;;;;;;12.50;81.40;;;;;;5095735;28;20014;-67
2022/03/01 00:12:31;;;;;;;;;;;12.30;81.30;;;;;;5103837;28;19920;-66
2022/03/01 00:14:57;;;;;;;;;;;12.10;81.30;;;;;;5103269;28;19927;-66
2022/03/01 00:17:23;;;;;;;;;;;12.40;81.40;;;;;;5107201;28;19930;-66
2022/03/01 00:19:48;;;;;;;;;;;12.40;81.00;;;;;;5115941;28;19927;-66
2022/03/01 00:22:14;;;;;;;;;;;12.20;81.20;;;;;;5100323;28;19928;-66
2022/03/01 00:24:39;;;;;;;;;;;12.70;81.40;;;;;;5094989;28;19920;-66
2022/03/01 00:27:05;;;;;;;;;;;12.30;81.20;;;;;;5095144;28;19951;-67
2022/03/01 00:29:31;;;;;;;;;;;12.40;81.30;;;;;;5094757;28;20263;-66
2022/03/01 00:31:57;;;;;;;;;;;12.50;81.30;;;;;;5094754;28;19931;-66
2022/03/01 00:34:22;;;;;;;;;;;12.50;81.20;;;;;;5095027;28;19924;-66
2022/03/01 00:36:48;;;;;;;;;;;12.50;81.20;;;;;;5112022;28;19930;-66
2022/03/01 00:39:14;;;;;;;;;;;12.40;81.10;;;;;;5095100;28;20365;-66
2022/03/01 00:41:40;;;;;;;;;;;12.30;81.00;;;;;;5096338;28;20426;-66
2022/03/01 00:44:05;;;;;;;;;;;12.40;81.20;;;;;;5092330;28;19934;-61
2022/03/01 00:46:31;;;;;;;;;;;12.30;81.00;;;;;;5096099;28;19949;-61
2022/03/01 00:48:57;;;;;;;;;;;12.30;80.90;;;;;;5102518;28;20010;-61
2022/03/01 00:51:23;;;;;;;;;;;12.30;81.00;;;;;;5108236;28;19926;-67
2022/03/01 00:53:49;;;;;;;;;;;12.20;80.90;;;;;;5104807;27;19924;-66
2022/03/01 00:56:14;;;;;;;;;;;12.50;81.00;;;;;;5112904;27;19927;-66
2022/03/01 00:58:40;;;;;;;;;;;12.40;81.10;;;;;;5106569;28;19924;-67
2022/03/01 01:01:06;;;;;;;;;;;12.30;81.10;;;;;;5094346;28;20393;-66
2022/03/01 01:03:31;;;;;;;;;;;;;;;;;;5078955;28;20007;-65
2022/03/01 01:06:00;;;;;;;;;;;12.20;81.10;;;;;;5104878;28;19931;-67
2022/03/01 01:08:26;;;;;;;;;;;12.30;81.10;;;;;;5085629;28;19928;-67
2022/03/01 01:10:55;;;;;;;;;;;12.00;81.00;;;;;;5076702;28;19946;-66
2022/03/01 01:13:21;;;;;;;;;;;;;;;;;;5109460;28;20400;-66
2022/03/01 01:15:46;;;;;;;;;;;12.30;81.10;;;;;;5109233;27;20014;-67
2022/03/01 01:18:12;;;;;;;;;;;12.20;81.00;;;;;;5094322;28;20019;-67
2022/03/01 01:20:38;;;;;;;;;;;;;;;;;;5076073;28;19925;-65
2022/03/01 01:23:04;;;;;;;;;;;12.20;80.90;;;;;;5100418;28;19969;-66
2022/03/01 01:25:29;;;;;;;;;;;12.40;81.00;;;;;;5068490;28;20022;-65
2022/03/01 01:27:56;;;;;;;;;;;12.40;80.90;;;;;;5101576;28;19928;-66
2022/03/01 01:30:22;;;;;;;;;;;12.20;80.80;;;;;;5108121;28;19930;-67
2022/03/01 01:32:48;;;;;;;;;;;12.30;80.90;;;;;;5094788;28;20370;-66
2022/03/01 01:35:14;;;;;;;;;;;12.20;80.80;;;;;;5093452;28;19931;-65
2022/03/01 01:37:40;;;;;;;;;;;12.10;80.70;;;;;;5075909;28;20003;-66
2022/03/01 01:40:06;;;;;;;;;;;12.10;80.80;;;;;;5094063;28;19928;-67
2022/03/01 01:42:32;;;;;;;;;;;12.20;80.80;;;;;;5093967;28;19928;-65
2022/03/01 01:44:58;;;;;;;;;;;12.20;80.70;;;;;;5097652;28;20274;-65
2022/03/01 01:47:23;;;;;;;;;;;12.40;80.80;;;;;;5106678;28;19947;-67
2022/03/01 01:49:49;;;;;;;;;;;;;;;;;;5110783;28;19931;-65
2022/03/01 01:52:15;;;;;;;;;;;;;;;;;;5094959;28;19963;-66
2022/03/01 01:54:41;;;;;;;;;;;12.20;80.70;;;;;;5098593;28;19968;-66
2022/03/01 01:57:16;;;;;;;;;;;12.10;80.60;;;;;;5105440;28;20006;-66
2022/03/01 01:59:42;;;;;;;;;;;12.10;80.70;;;;;;5097725;28;19931;-67
2022/03/01 02:02:11;;;;;;;;;;;12.00;80.70;;;;;;5093741;28;19920;-67
2022/03/01 02:04:37;;;;;;;;;;;12.20;80.90;;;;;;5075371;28;20002;-67
2022/03/01 02:07:03;;;;;;;;;;;12.20;80.70;;;;;;5103057;28;19936;-66
2022/03/01 02:09:28;;;;;;;;;;;12.10;80.80;;;;;;5104955;28;19928;-67
2022/03/01 02:11:54;;;;;;;;;;;12.10;80.70;;;;;;5103117;28;19968;-67
2022/03/01 02:14:19;;;;;;;;;;;12.20;80.80;;;;;;5092625;28;20010;-67
2022/03/01 02:16:45;;;;;;;;;;;12.10;80.70;;;;;;5095528;28;19935;-65
2022/03/01 02:19:11;;;;;;;;;;;12.10;80.60;;;;;;5106893;28;19982;-67
2022/03/01 02:21:43;;;;;;;;;;;12.10;80.60;;;;;;5093299;28;19931;-66
2022/03/01 02:24:09;;;;;;;;;;;12.00;80.50;;;;;;5097307;28;19931;-67
2022/03/01 02:26:35;;;;;;;;;;;12.20;80.70;;;;;;5093258;28;20337;-67
2022/03/01 02:29:01;;;;;;;;;;;;;;;;;;5094695;28;19931;-67
2022/03/01 02:31:26;;;;;;;;;;;12.10;80.60;;;;;;5099222;28;20072;-66
2022/03/01 02:33:52;;;;;;;;;;;12.30;80.80;;;;;;5093376;28;19973;-67
2022/03/01 02:36:18;;;;;;;;;;;;;;;;;;5093465;28;20383;-66
2022/03/01 02:38:43;;;;;;;;;;;12.30;80.60;;;;;;5096798;28;19920;-66
2022/03/01 02:41:09;;;;;;;;;;;12.20;80.60;;;;;;5094427;28;19924;-67
2022/03/01 02:43:35;;;;;;;;;;;;;;;;;;5115505;28;19980;-65
2022/03/01 02:46:01;;;;;;;;;;;12.20;80.60;;;;;;5097466;28;20353;-67
2022/03/01 02:48:26;;;;;;;;;;;12.00;80.50;;;;;;5112134;28;19963;-67
2022/03/01 02:50:52;;;;;;;;;;;12.00;80.60;;;;;;5085476;28;19924;-66
2022/03/01 02:53:17;;;;;;;;;;;12.00;80.60;;;;;;5107443;27;19920;-67
2022/03/01 02:55:43;;;;;;;;;;;12.30;80.70;;;;;;5096649;28;19928;-67
2022/03/01 02:58:09;;;;;;;;;;;12.30;80.60;;;;;;5107613;28;19943;-67
2022/03/01 03:00:34;;;;;;;;;;;12.10;80.40;;;;;;5098469;27;19924;-66
2022/03/01 03:03:00;;;;;;;;;;;12.10;80.40;;;;;;5098090;28;19959;-67
2022/03/01 03:05:25;;;;;;;;;;;11.90;80.30;;;;;;5098320;28;19931;-67
2022/03/01 03:07:51;;;;;;;;;;;12.40;80.50;;;;;;5102719;28;19931;-67
2022/03/01 03:10:17;;;;;;;;;;;11.90;80.20;;;;;;5113902;28;19923;-66
2022/03/01 03:12:43;;;;;;;;;;;12.10;80.30;;;;;;5104558;28;19924;-66
2022/03/01 03:15:10;;;;;;;;;;;;;;;;;;5106646;28;19931;-66
2022/03/01 03:17:35;;;;;;;;;;;12.10;79.60;;;;;;5114111;28;19981;-66
2022/03/01 03:20:01;;;;;;;;;;;12.00;80.40;;;;;;5078226;28;19924;-67
2022/03/01 03:22:26;;;;;;;;;;;12.00;80.40;;;;;;5100866;28;20338;-67
2022/03/01 03:24:52;;;;;;;;;;;11.90;80.30;;;;;;5096370;28;20438;-66
2022/03/01 03:27:18;;;;;;;;;;;12.20;80.50;;;;;;5102002;28;19931;-67
2022/03/01 03:29:43;;;;;;;;;;;12.00;80.40;;;;;;5096027;28;20375;-66
2022/03/01 03:32:09;;;;;;;;;;;12.00;80.40;;;;;;5096519;28;19924;-66
2022/03/01 03:34:35;;;;;;;;;;;12.00;80.50;;;;;;5096913;28;20375;-65
2022/03/01 03:37:00;;;;;;;;;;;12.00;80.40;;;;;;5102315;28;19974;-67
2022/03/01 03:39:26;;;;;;;;;;;11.80;80.20;;;;;;5099555;28;19971;-66
2022/03/01 03:41:51;;;;;;;;;;;12.00;80.40;;;;;;5095636;28;19927;-67
2022/03/01 03:44:17;;;;;;;;;;;11.80;80.40;;;;;;5104692;28;19931;-67
2022/03/01 03:46:43;;;;;;;;;;;11.90;80.40;;;;;;5100684;28;19931;-66
2022/03/01 03:49:08;;;;;;;;;;;11.90;80.40;;;;;;5103873;28;19976;-67
2022/03/01 03:51:34;;;;;;;;;;;11.90;80.40;;;;;;5094967;28;19977;-67
2022/03/01 03:53:59;;;;;;;;;;;11.90;80.30;;;;;;5096072;28;19959;-67
2022/03/01 03:56:25;;;;;;;;;;;11.90;80.30;;;;;;5104666;28;19981;-67
2022/03/01 03:58:51;;;;;;;;;;;12.00;80.50;;;;;;5100319;28;19924;-67
2022/03/01 04:01:17;;;;;;;;;;;;;;;;;;5095283;28;19924;-66
2022/03/01 04:03:42;;;;;;;;;;;11.70;80.40;;;;;;5095550;28;19969;-66
2022/03/01 04:06:08;;;;;;;;;;;12.00;80.60;;;;;;5095506;28;19924;-66
2022/03/01 04:08:34;;;;;;;;;;;11.80;80.40;;;;;;5097193;28;19934;-67
2022/03/01 04:11:00;;;;;;;;;;;;;;;;;;5114783;28;19931;-66
2022/03/01 04:13:26;;;;;;;;;;;11.80;80.30;;;;;;5107134;27;20030;-67
2022/03/01 04:15:52;;;;;;;;;;;12.00;80.40;;;;;;5136475;27;19975;-67
2022/03/01 04:18:17;;;;;;;;;;;12.00;80.40;;;;;;5115311;27;19963;-66
2022/03/01 04:20:43;;;;;;;;;;;12.00;80.40;;;;;;5113987;28;19931;-61
2022/03/01 04:23:09;;;;;;;;;;;11.90;80.30;;;;;;5127460;27;20023;-66
2022/03/01 04:25:35;;;;;;;;;;;11.90;80.40;;;;;;5113062;28;19963;-67
2022/03/01 04:28:00;;;;;;;;;;;12.00;80.40;;;;;;5126393;27;20369;-67
2022/03/01 04:30:27;;;;;;;;;;;;;;;;;;5106005;27;19939;-66
2022/03/01 04:32:53;;;;;;;;;;;11.90;80.20;;;;;;5095273;28;20017;-67
2022/03/01 04:35:19;;;;;;;;;;;12.20;80.40;;;;;;5095196;28;19924;-67
2022/03/01 04:37:45;;;;;;;;;;;12.00;80.30;;;;;;5095093;28;20325;-66
2022/03/01 04:40:11;;;;;;;;;;;12.10;80.30;;;;;;5094536;28;19931;-66
2022/03/01 04:42:36;;;;;;;;;;;11.70;80.00;;;;;;5096466;28;19962;-66
2022/03/01 04:45:02;;;;;;;;;;;11.70;80.10;;;;;;5095258;28;20381;-67
2022/03/01 04:47:28;;;;;;;;;;;12.10;80.20;;;;;;5095089;28;20018;-66
2022/03/01 04:49:54;;;;;;;;;;;12.00;80.20;;;;;;5095189;28;19963;-67
2022/03/01 04:52:19;;;;;;;;;;;11.80;80.10;;;;;;5095515;28;19924;-67
2022/03/01 04:54:45;;;;;;;;;;;12.00;80.20;;;;;;5094797;28;19935;-67
2022/03/01 04:57:11;;;;;;;;;;;11.70;80.10;;;;;;5094596;28;20010;-67
2022/03/01 04:59:36;;;;;;;;;;;12.00;80.20;;;;;;5107051;27;19930;-66
2022/03/01 05:02:02;;;;;;;;;;;12.00;80.10;;;;;;5124211;27;19924;-67
2022/03/01 05:04:28;;;;;;;;;;;11.90;80.10;;;;;;5088712;28;20365;-67
2022/03/01 05:06:53;;;;;;;;;;;11.90;80.20;;;;;;5113887;28;20343;-68
2022/03/01 05:09:21;;;;;;;;;;;12.00;80.20;;;;;;5097468;28;19924;-66
2022/03/01 05:11:47;;;;;;;;;;;11.90;80.10;;;;;;5094570;28;19924;-67
2022/03/01 05:14:13;;;;;;;;;;;12.00;80.10;;;;;;5093902;28;19932;-67
2022/03/01 05:16:39;;;;;;;;;;;11.90;80.10;;;;;;5094324;28;20369;-67
2022/03/01 05:19:05;;;;;;;;;;;;;;;;;;5110401;28;19931;-66
2022/03/01 05:21:30;;;;;;;;;;;12.10;80.10;;;;;;5094510;28;20404;-66
2022/03/01 05:23:56;;;;;;;;;;;11.90;80.00;;;;;;5100891;27;19924;-66
2022/03/01 05:26:22;;;;;;;;;;;11.80;79.90;;;;;;5094503;28;20293;-66
2022/03/01 05:28:47;;;;;;;;;;;11.80;79.90;;;;;;5093902;28;20010;-67
2022/03/01 05:31:13;;;;;;;;;;;11.90;80.00;;;;;;5081243;28;20010;-67
2022/03/01 05:33:39;;;;;;;;;;;11.70;79.80;;;;;;5103169;28;20026;-66
2022/03/01 05:36:04;;;;;;;;;;;11.60;79.80;;;;;;5095430;28;20440;-67
2022/03/01 05:38:30;;;;;;;;;;;12.10;80.10;;;;;;5102176;28;20377;-67
2022/03/01 05:40:55;;;;;;;;;;;11.70;79.90;;;;;;5105125;28;19968;-67
2022/03/01 05:43:21;;;;;;;;;;;11.70;80.00;;;;;;5094133;28;19924;-67
2022/03/01 05:45:47;;;;;;;;;;;11.70;80.00;;;;;;5107383;28;19920;-67
2022/03/01 05:48:12;;;;;;;;;;;11.80;79.10;;;;;;5096126;28;19924;-66
2022/03/01 05:50:38;;;;;;;;;;;11.80;80.00;;;;;;5093491;28;19979;-67
2022/03/01 05:53:03;;;;;;;;;;;12.10;80.10;;;;;;5076124;28;19961;-65
2022/03/01 05:55:29;;;;;;;;;;;12.00;80.10;;;;;;5094256;28;19924;-67
2022/03/01 05:57:55;;;;;;;;;;;11.70;79.90;;;;;;5092824;28;19935;-67
2022/03/01 06:00:21;;;;;;;;;;;11.90;80.10;;;;;;5105877;28;19930;-67
2022/03/01 06:02:47;;;;;;;;;;;11.90;80.00;;;;;;5100966;28;19924;-67
2022/03/01 06:05:14;;;;;;;;;;;;;;;;;;5100284;28;19924;-67
2022/03/01 06:07:40;;;;;;;;;;;11.80;79.90;;;;;;5097424;28;19928;-66
2022/03/01 06:10:06;;;;;;;;;;;12.10;80.10;;;;;;5090900;28;19943;-67
2022/03/01 06:12:31;;;;;;;;;;;12.00;80.10;;;;;;5094097;28;20369;-67
2022/03/01 06:14:57;;;;;;;;;;;12.00;80.10;;;;;;5095019;28;19924;-67
2022/03/01 06:17:22;;;;;;;;;;;11.90;80.10;;;;;;5112551;28;19924;-66
2022/03/01 06:19:48;;;;;;;;;;;12.00;80.00;;;;;;5097881;28;19924;-67
2022/03/01 06:22:14;;;;;;;;;;;12.00;80.10;;;;;;5100426;28;20011;-66
2022/03/01 06:24:40;;;;;;;;;;;11.90;80.10;;;;;;5085944;28;20023;-67
2022/03/01 06:27:05;;;;;;;;;;;11.90;79.90;;;;;;5108503;28;19978;-67
2022/03/01 06:29:31;;;;;;;;;;;11.90;79.90;;;;;;5095593;28;20393;-67
2022/03/01 06:31:57;;;;;;;;;;;11.90;79.80;;;;;;5087356;28;19928;-67
2022/03/01 06:34:22;;;;;;;;;;;11.90;79.90;;;;;;5114789;28;20274;-65
2022/03/01 06:36:48;;;;;;;;;;;11.90;80.00;;;;;;5097758;28;19927;-65
2022/03/01 06:39:14;;;;;;;;;;;12.10;80.00;;;;;;5102201;28;20377;-64
2022/03/01 06:41:39;;;;;;;;;;;11.80;80.00;;;;;;5111517;28;19920;-61
2022/03/01 06:44:05;;;;;;;;;;;12.10;80.10;;;;;;5106749;28;20049;-65
2022/03/01 06:46:31;;;;;;;;;;;11.90;79.90;;;;;;5097093;28;19985;-67
2022/03/01 06:48:58;;;;;;;;;;;;;;;;;;5102639;28;19924;-66
2022/03/01 06:51:23;;;;;;;;;;;12.00;80.10;;;;;;5097990;28;19928;-61
2022/03/01 06:53:49;;;;;;;;;;;11.70;80.00;;;;;;5097421;28;19924;-60
2022/03/01 06:56:15;;;;;;;;;;;11.80;80.00;;;;;;5095282;28;19951;-60
2022/03/01 06:58:40;;;;;;;;;;;11.80;80.10;;;;;;5101582;28;19924;-61
2022/03/01 07:01:06;;;;;;;;;;;11.90;80.20;;;;;;5108324;28;19931;-61
2022/03/01 07:03:31;;;;;;;;;;;12.10;80.30;;;;;;5081372;28;20392;-60
2022/03/01 07:05:57;;;;;;;;;;;12.10;80.30;;;;;;5115817;28;20315;-60
2022/03/01 07:08:24;;;;;;;;;;;11.80;80.00;;;;;;5098637;28;19950;-61
2022/03/01 07:10:50;;;;;;;;;;;11.90;80.10;;;;;;5116670;28;20007;-61
2022/03/01 07:13:15;;;;;;;;;;;11.80;80.00;;;;;;5115090;28;19977;-67
2022/03/01 07:15:41;;;;;;;;;;;;;;;;;;5131430;27;19931;-65
2022/03/01 07:18:07;;;;;;;;;;;12.10;79.70;;;;;;5106035;28;20301;-67
2022/03/01 07:20:34;;;;;;;;;;;11.90;79.50;;;;;;5113158;28;19924;-67
2022/03/01 07:23:00;;;;;;;;;;;11.90;79.80;;;;;;5116937;28;19924;-60
2022/03/01 07:25:26;;;;;;;;;;;11.80;79.70;;;;;;5116972;28;20022;-60
2022/03/01 07:27:52;;;;;;;;;;;11.90;79.80;;;;;;5116106;28;20365;-61
2022/03/01 07:30:18;;;;;;;;;;;11.90;79.70;;;;;;5116648;28;19924;-61
2022/03/01 07:32:44;;;;;;;;;;;11.90;79.70;;;;;;5098599;28;19930;-64
2022/03/01 07:35:09;;;;;;;;;;;12.10;79.70;;;;;;5116975;28;19924;-60
2022/03/01 07:37:37;;;;;;;;;;;12.20;79.80;;;;;;5103153;28;20365;-61
2022/03/01 07:40:10;;;;;;;;;;;12.00;79.70;;;;;;5116826;28;19924;-60
2022/03/01 07:42:36;;;;;;;;;;;12.10;79.70;;;;;;5116581;28;19924;-61
2022/03/01 07:45:02;;;;;;;;;;;12.00;79.60;;;;;;5116526;28;19927;-61
2022/03/01 07:47:27;;;;;;;;;;;12.20;79.70;;;;;;5116210;28;19968;-61
2022/03/01 07:49:53;;;;;;;;;;;12.00;79.50;;;;;;5114586;28;19931;-61
2022/03/01 07:52:19;;;;;;;;;;;12.00;79.50;;;;;;5116467;28;20300;-62
2022/03/01 07:54:44;;;;;;;;;;;12.20;79.60;;;;;;5097112;28;20070;-61
2022/03/01 07:57:10;;;;;;;;;;;12.30;79.70;;;;;;5096241;28;20285;-61
2022/03/01 07:59:36;;;;;;;;;;;12.30;79.60;;;;;;5095773;28;20357;-61
2022/03/01 08:02:02;;;;;;;;;;;12.30;79.60;;;;;;5077545;28;20010;-60
2022/03/01 08:04:28;;;;;;;;;;;12.30;79.60;;;;;;5096112;28;19989;-61
2022/03/01 08:06:54;;;;;;;;;;;;;;;;;;5095663;28;19972;-61
2022/03/01 08:09:20;;;;;;;;;;;12.20;79.40;;;;;;5099734;27;19924;-60
2022/03/01 08:11:45;;;;;;;;;;;12.40;79.50;;;;;;5096798;27;19924;-61
2022/03/01 08:14:11;;;;;;;;;;;12.50;79.60;;;;;;5077530;28;19924;-60
2022/03/01 08:16:37;;;;;;;;;;;12.60;79.60;;;;;;5095807;28;19924;-61
2022/03/01 08:19:02;;;;;;;;;;;12.30;79.40;;;;;;5096089;28;20366;-62
2022/03/01 08:21:28;;;;;;;;;;;12.60;79.50;;;;;;5103026;28;19924;-61
2022/03/01 08:23:53;;;;;;;;;;;12.60;79.40;;;;;;5095715;28;19969;-61
2022/03/01 08:26:19;;;;;;;;;;;;;;;;;;5095259;28;20400;-62
2022/03/01 08:28:46;;;;;;;;;;;12.60;79.30;;;;;;5114186;28;19935;-60
2022/03/01 08:31:12;;;;;;;;;;;12.80;79.40;;;;;;5122043;27;19923;-62
2022/03/01 08:33:37;;;;;;;;;;;12.70;79.30;;;;;;5127925;27;19931;-61
2022/03/01 08:36:03;;;;;;;;;;;12.80;79.40;;;;;;5115532;28;19923;-62
2022/03/01 08:38:29;;;;;;;;;;;12.70;79.30;;;;;;5114843;28;19924;-61
2022/03/01 08:40:55;;;;;;;;;;;12.90;79.40;;;;;;5115591;28;19928;-61
2022/03/01 08:43:21;;;;;;;;;;;12.80;79.30;;;;;;5114027;28;19931;-61
2022/03/01 08:45:47;;;;;;;;;;;13.00;79.40;;;;;;5077256;28;19931;-60
2022/03/01 08:48:13;;;;;;;;;;;12.70;79.20;;;;;;5094839;28;20061;-61
2022/03/01 08:50:39;;;;;;;;;;;12.90;79.30;;;;;;5095128;28;19968;-61
2022/03/01 08:53:05;;;;;;;;;;;13.00;79.30;;;;;;5103950;28;19934;-61
2022/03/01 08:55:31;;;;;;;;;;;;;;;;;;5115389;28;20011;-61
2022/03/01 08:57:57;;;;;;;;;;;12.70;79.20;;;;;;5115418;28;20023;-61
2022/03/01 09:00:24;;;;;;;;;;;12.70;79.10;;;;;;5114992;28;19924;-60
2022/03/01 09:02:50;;;;;;;;;;;12.70;79.10;;;;;;5096996;28;19939;-61
2022/03/01 09:05:15;;;;;;;;;;;12.90;79.20;;;;;;5114944;28;20297;-61
2022/03/01 09:07:41;;;;;;;;;;;12.90;79.30;;;;;;5115206;28;19969;-61
2022/03/01 09:10:07;;;;;;;;;;;;;;;;;;5114732;28;19931;-62
2022/03/01 09:12:33;;;;;;;;;;;13.10;79.30;;;;;;5114866;28;20382;-60
2022/03/01 09:14:58;;;;;;;;;;;13.20;79.20;;;;;;5105416;27;19969;-68
2022/03/01 09:17:24;;;;;;;;;;;;;;;;;;5111592;27;19951;-65
2022/03/01 09:19:50;;;;;;;;;;;12.90;78.90;;;;;;5094571;28;19924;-65
2022/03/01 09:22:16;;;;;;;;;;;13.10;78.80;;;;;;5089085;28;19935;-66
2022/03/01 09:24:41;;;;;;;;;;;13.00;78.50;;;;;;5103212;28;19924;-61
2022/03/01 09:27:07;;;;;;;;;;;13.20;78.00;;;;;;5114301;28;20277;-64
2022/03/01 09:29:33;;;;;;;;;;;13.20;78.30;;;;;;5094248;28;19932;-64
2022/03/01 09:31:59;;;;;;;;;;;13.20;78.10;;;;;;5094124;28;20406;-63
2022/03/01 09:34:25;;;;;;;;;;;13.40;77.90;;;;;;5094078;28;19924;-63
2022/03/01 09:36:51;;;;;;;;;;;13.00;77.80;;;;;;5095841;28;19924;-61
2022/03/01 09:39:17;;;;;;;;;;;12.80;77.60;;;;;;5075711;28;19939;-61
2022/03/01 09:41:42;;;;;;;;;;;13.00;77.70;;;;;;5094267;28;20007;-63
2022/03/01 09:44:08;;;;;;;;;;;13.10;77.80;;;;;;5094214;28;20365;-62
2022/03/01 09:46:34;;;;;;;;;;;;;;;;;;5084691;28;19932;-66
2022/03/01 09:49:00;;;;;;;;;;;13.10;77.70;;;;;;5103955;28;19924;-65
2022/03/01 09:51:25;;;;;;;;;;;12.80;77.30;;;;;;5094313;28;19924;-64
2022/03/01 09:53:51;;;;;;;;;;;13.00;77.70;;;;;;5114055;28;20326;-65
2022/03/01 09:56:18;;;;;;;;;;;12.80;77.50;;;;;;5112178;28;19924;-65
2022/03/01 09:58:44;;;;;;;;;;;12.70;77.40;;;;;;5075621;28;19927;-65
2022/03/01 10:01:10;;;;;;;;;;;12.70;77.40;;;;;;5076038;28;20383;-63
2022/03/01 10:03:36;;;;;;;;;;;12.50;77.60;;;;;;5097927;28;19978;-63
2022/03/01 10:06:06;;;;;;;;;;;12.50;77.80;;;;;;5114232;28;19987;-66
2022/03/01 10:08:31;;;;;;;;;;;12.70;78.00;;;;;;5099949;28;19924;-68
2022/03/01 10:10:58;;;;;;;;;;;;;;;;;;5093913;28;19920;-67
2022/03/01 10:13:27;;;;;;;;;;;12.70;78.20;;;;;;5093726;28;19973;-68
2022/03/01 10:16:03;;;;;;;;;;;12.40;78.20;;;;;;5075675;28;20293;-68
2022/03/01 10:18:30;;;;;;;;;;;12.50;78.30;;;;;;5076428;28;19924;-66
2022/03/01 10:21:00;;;;;;;;;;;12.70;78.20;;;;;;5075927;28;20281;-67
2022/03/01 10:23:25;;;;;;;;;;;12.50;78.10;;;;;;5100499;28;20002;-67
2022/03/01 10:25:51;;;;;;;;;;;12.70;78.20;;;;;;5105785;28;19975;-66
2022/03/01 10:28:17;;;;;;;;;;;12.50;77.30;;;;;;5096442;28;20014;-65
2022/03/01 10:30:42;;;;;;;;;;;12.30;78.00;;;;;;5093829;28;20336;-67
2022/03/01 10:33:09;;;;;;;;;;;12.70;78.20;;;;;;5093201;28;19928;-67
2022/03/01 10:35:35;;;;;;;;;;;12.50;78.10;;;;;;5093768;28;20022;-66
2022/03/01 10:38:04;;;;;;;;;;;12.50;78.10;;;;;;5075355;28;19924;-67
2022/03/01 10:40:30;;;;;;;;;;;;;;;;;;5105626;28;19977;-64
2022/03/01 10:43:01;;;;;;;;;;;12.50;78.30;;;;;;5117050;28;20309;-64
2022/03/01 10:45:50;;;;;;;;;;;12.50;78.40;;;;;;5095513;28;19967;-64
2022/03/01 10:48:24;;;;;;;;;;;12.40;78.50;;;;;;5095277;28;20355;-63
2022/03/01 10:50:58;;;;;;;;;;;12.50;78.60;;;;;;5111428;28;19930;-65
2022/03/01 10:53:28;;;;;;;;;;;12.70;78.70;;;;;;5089603;28;19924;-64
2022/03/01 10:55:59;;;;;;;;;;;12.50;78.70;;;;;;5093210;28;19924;-64
2022/03/01 10:58:24;;;;;;;;;;;12.50;78.80;;;;;;5093885;28;19933;-65
2022/03/01 11:00:50;;;;;;;;;;;12.40;78.70;;;;;;5105065;28;19968;-65
2022/03/01 11:03:15;;;;;;;;;;;12.50;78.80;;;;;;5096720;28;19927;-64
2022/03/01 11:05:41;;;;;;;;;;;12.30;78.70;;;;;;5096917;28;19931;-64
2022/03/01 11:08:10;;;;;;;;;;;12.40;78.80;;;;;;5079090;28;19924;-64
2022/03/01 11:10:36;;;;;;;;;;;12.60;78.90;;;;;;5061879;28;19924;-64
2022/03/01 11:13:02;;;;;;;;;;;12.50;78.90;;;;;;5109315;28;20412;-65
2022/03/01 11:15:46;;;;;;;;;;;12.90;78.90;;;;;;5113286;28;19971;-62
2022/03/01 11:18:14;;;;;;;;;;;12.70;78.80;;;;;;5111911;28;20371;-60
2022/03/01 11:20:40;;;;;;;;;;;;;;;;;;5101698;28;19924;-63
2022/03/01 11:23:07;;;;;;;;;;;12.90;78.80;;;;;;5111791;27;19927;-63
2022/03/01 11:25:37;;;;;;;;;;;12.90;78.60;;;;;;5107992;27;20387;-64
2022/03/01 11:28:07;;;;;;;;;;;13.10;78.40;;;;;;5104091;27;20147;-64
2022/03/01 11:30:33;;;;;;;;;;;;;;;;;;5076420;28;20335;-64
2022/03/01 11:32:59;;;;;;;;;;;13.00;78.40;;;;;;5115462;28;19928;-63
2022/03/01 11:35:25;;;;;;;;;;;13.20;78.50;;;;;;5100115;28;19928;-63
2022/03/01 11:37:58;;;;;;;;;;;13.10;78.40;;;;;;5078384;28;19924;-64
2022/03/01 11:40:24;;;;;;;;;;;13.20;78.40;;;;;;5096198;28;19967;-64
2022/03/01 11:42:49;;;;;;;;;;;13.30;78.60;;;;;;5108217;28;19979;-65
2022/03/01 11:45:15;;;;;;;;;;;13.20;78.50;;;;;;5116887;28;19924;-65
2022/03/01 11:47:41;;;;;;;;;;;13.30;79.30;;;;;;5114760;28;19923;-64
2022/03/01 11:50:13;;;;;;;;;;;13.30;79.20;;;;;;5081427;28;20008;-63
2022/03/01 11:52:57;;;;;;;;;;;13.50;79.30;;;;;;5108238;28;19919;-63
2022/03/01 11:55:23;;;;;;;;;;;;;;;;;;5098759;28;19924;-63
2022/03/01 11:57:49;;;;;;;;;;;13.60;79.40;;;;;;5116340;28;19919;-63
2022/03/01 12:00:15;;;;;;;;;;;13.30;78.60;;;;;;5098130;28;19924;-61
2022/03/01 12:02:41;;;;;;;;;;;;;;;;;;5100599;28;19927;-61
2022/03/01 12:05:07;;;;;;;;;;;;;;;;;;5095228;28;19924;-65
2022/03/01 12:07:33;;;;;;;;;;;13.60;78.60;;;;;;5081084;28;19931;-64
2022/03/01 12:09:59;;;;;;;;;;;13.90;78.50;;;;;;5077076;28;19932;-65
2022/03/01 12:12:39;;;;;;;;;;;13.70;78.40;;;;;;5098370;28;19935;-66
2022/03/01 12:15:06;;;;;;;;;;;13.80;78.50;;;;;;5085235;28;19928;-65
2022/03/01 12:17:44;;;;;;;;;;;13.80;78.40;;;;;;5096104;28;19924;-66
2022/03/01 12:20:11;;;;;;;;;;;13.80;78.50;;;;;;5095420;28;20011;-66
2022/03/01 12:22:37;;;;;;;;;;;13.90;78.50;;;;;;5092813;28;19924;-63
2022/03/01 12:25:02;;;;;;;;;;;14.00;78.50;;;;;;5109257;28;19931;-61
2022/03/01 12:27:28;;;;;;;;;;;13.80;78.50;;;;;;5095581;28;20018;-65
2022/03/01 12:29:54;;;;;;;;;;;13.70;78.40;;;;;;5076777;28;19927;-62
2022/03/01 12:32:20;;;;;;;;;;;13.60;78.30;;;;;;5105779;28;20300;-62
2022/03/01 12:34:47;;;;;;;;;;;13.70;78.40;;;;;;5109498;28;19930;-63
2022/03/01 12:37:14;;;;;;;;;;;13.90;78.50;;;;;;5095439;28;20324;-60
2022/03/01 12:39:40;;;;;;;;;;;13.90;78.60;;;;;;5077077;28;19924;-64
2022/03/01 12:42:06;;;;;;;;;;;13.60;78.40;;;;;;5069353;28;20405;-63
2022/03/01 12:44:32;;;;;;;;;;;13.90;78.60;;;;;;5113377;28;19923;-64
2022/03/01 12:46:58;;;;;;;;;;;14.00;78.70;;;;;;5115017;28;19970;-64
2022/03/01 12:49:23;;;;;;;;;;;13.90;78.70;;;;;;5097195;28;20019;-64
2022/03/01 12:51:49;;;;;;;;;;;14.10;78.80;;;;;;5111489;28;20377;-63
2022/03/01 12:54:15;;;;;;;;;;;13.70;78.60;;;;;;5094649;28;19924;-63
2022/03/01 12:56:42;;;;;;;;;;;13.90;78.80;;;;;;5101110;28;19931;-66
2022/03/01 12:59:12;;;;;;;;;;;13.70;78.70;;;;;;5109526;28;19924;-64
2022/03/01 13:01:38;;;;;;;;;;;;;;;;;;5094560;28;19924;-64
2022/03/01 13:04:07;;;;;;;;;;;13.70;78.60;;;;;;5106980;28;19928;-64
2022/03/01 13:06:33;;;;;;;;;;;13.90;78.80;;;;;;5115261;28;19924;-64
2022/03/01 13:08:58;;;;;;;;;;;13.70;78.50;;;;;;5110145;28;19976;-63
2022/03/01 13:11:25;;;;;;;;;;;13.70;78.60;;;;;;5115061;28;19928;-62
2022/03/01 13:13:57;;;;;;;;;;;13.80;78.50;;;;;;5114884;28;20266;-64
2022/03/01 13:16:27;;;;;;;;;;;13.80;78.60;;;;;;5087958;28;20383;-64
2022/03/01 13:18:53;;;;;;;;;;;13.70;78.50;;;;;;5076341;28;20401;-63
2022/03/01 13:21:26;;;;;;;;;;;13.70;77.90;;;;;;5094593;28;20332;-63
2022/03/01 13:23:52;;;;;;;;;;;13.80;78.50;;;;;;5098585;27;19924;-61
2022/03/01 13:26:18;;;;;;;;;;;13.60;78.40;;;;;;5121918;27;20292;-63
2022/03/01 13:28:44;;;;;;;;;;;;;;;;;;5068150;28;20482;-63
2022/03/01 13:31:19;;;;;;;;;;;13.90;78.60;;;;;;5093677;28;19931;-64
2022/03/01 13:33:45;;;;;;;;;;;13.80;78.50;;;;;;5098770;28;19931;-61
2022/03/01 13:36:14;;;;;;;;;;;14.00;78.60;;;;;;5084111;28;20365;-64
2022/03/01 13:38:40;;;;;;;;;;;13.90;78.50;;;;;;5076255;28;19990;-64
2022/03/01 13:41:06;;;;;;;;;;;13.80;78.50;;;;;;5076680;28;19975;-63
2022/03/01 13:43:32;;;;;;;;;;;13.60;78.50;;;;;;5128079;27;20004;-63
2022/03/01 13:46:01;;;;;;;;;;;13.60;78.50;;;;;;5135169;27;19923;-64
2022/03/01 13:48:27;;;;;;;;;;;13.70;78.60;;;;;;5135125;27;19966;-64
2022/03/01 13:50:59;;;;;;;;;;;13.80;78.40;;;;;;5091895;28;20007;-64
2022/03/01 13:53:25;;;;;;;;;;;13.90;78.60;;;;;;5094180;28;19932;-64
2022/03/01 13:55:51;;;;;;;;;;;;;;;;;;5075785;28;20016;-63
2022/03/01 13:58:19;;;;;;;;;;;13.80;78.60;;;;;;5091095;28;19931;-65
2022/03/01 14:00:46;;;;;;;;;;;13.60;78.50;;;;;;5101155;28;20489;-66
2022/03/01 14:03:15;;;;;;;;;;;13.70;78.70;;;;;;5113879;28;20424;-66
2022/03/01 14:05:44;;;;;;;;;;;13.50;78.60;;;;;;5114472;28;19924;-68
2022/03/01 14:08:14;;;;;;;;;;;13.80;78.90;;;;;;5099362;28;19954;-63
2022/03/01 14:10:41;;;;;;;;;;;13.70;78.80;;;;;;5093978;28;19924;-64
2022/03/01 14:13:08;;;;;;;;;;;13.60;78.50;;;;;;5105464;28;19924;-62
2022/03/01 14:15:37;;;;;;;;;;;13.80;79.00;;;;;;5106087;28;20396;-64
2022/03/01 14:18:03;;;;;;;;;;;13.50;78.80;;;;;;5114313;28;19977;-64
2022/03/01 14:20:29;;;;;;;;;;;13.80;78.90;;;;;;5114332;28;20371;-63
2022/03/01 14:22:55;;;;;;;;;;;13.90;78.20;;;;;;5114803;28;19928;-61